createdAt,value
2019-05-02T00:03:04.539Z,98421.10
2019-05-02T00:06:15.951Z,98428.58
2019-05-02T00:09:30.174Z,98419.67
2019-05-02T00:12:44.278Z,98432.47
2019-05-02T00:15:58.630Z,98429.38
2019-05-02T00:19:13.897Z,98435.22
2019-05-02T00:22:28.358Z,98431.31
2019-05-02T00:25:41.947Z,98430.56
2019-05-02T00:28:55.949Z,98426.38
2019-05-02T00:32:09.662Z,98433.63
2019-05-02T00:35:23.242Z,98427.02
2019-05-02T00:38:38.482Z,98421.55
2019-05-02T00:41:52.553Z,98416.20
2019-05-02T00:45:06.464Z,98419.08
2019-05-02T00:48:42.706Z,98416.35
2019-05-02T00:52:00.896Z,98412.55
2019-05-02T00:55:12.611Z,98416.17
2019-05-02T00:58:27.236Z,98413.16
2019-05-02T01:01:52.334Z,98411.14
2019-05-02T01:05:06.235Z,98413.17
2019-05-02T01:08:19.750Z,98408.36
2019-05-02T01:11:33.369Z,98407.11
2019-05-02T01:14:46.883Z,98403.19
2019-05-02T01:18:01.080Z,98396.20
2019-05-02T01:24:45.750Z,98402.82
2019-05-02T01:28:17.966Z,98406.16
2019-05-02T01:31:38.707Z,98405.55
2019-05-02T01:35:00.541Z,98410.81
2019-05-02T01:38:33.681Z,98405.00
2019-05-02T01:41:47.703Z,98400.38
2019-05-02T01:45:01.286Z,98400.64
2019-05-02T01:48:14.897Z,98400.44
2019-05-02T01:51:28.476Z,98400.20
2019-05-02T01:54:45.856Z,98405.07
2019-05-02T01:57:57.401Z,98395.13
2019-05-02T02:01:10.918Z,98396.77
2019-05-02T02:04:24.396Z,98393.56
2019-05-02T02:07:37.906Z,98393.86
2019-05-02T02:10:56.239Z,98397.02
2019-05-02T02:14:12.182Z,98388.48
2019-05-02T02:17:23.010Z,98387.72
2019-05-02T02:20:49.060Z,98394.25
2019-05-02T02:24:07.821Z,98394.63
2019-05-02T02:27:24.601Z,98395.49
2019-05-02T02:30:36.936Z,98395.39
2019-05-02T02:33:50.815Z,98389.86
2019-05-02T02:37:12.164Z,98388.45
2019-05-02T02:40:20.089Z,98393.47
2019-05-02T02:43:35.009Z,98387.20
2019-05-02T02:46:48.909Z,98384.64
2019-05-02T02:50:05.358Z,98381.62
2019-05-02T02:53:28.998Z,98382.37
2019-05-02T02:56:42.858Z,98374.19
2019-05-02T03:00:06.752Z,98379.80
2019-05-02T03:03:12.230Z,98373.54
2019-05-02T03:06:25.938Z,98368.69
2019-05-02T03:09:39.554Z,98371.88
2019-05-02T03:13:15.068Z,98362.95
2019-05-02T03:16:28.417Z,98359.14
2019-05-02T03:19:42.026Z,98362.86
2019-05-02T03:22:55.717Z,98353.53
2019-05-02T03:26:15.006Z,98352.26
2019-05-02T03:29:24.955Z,98350.88
2019-05-02T03:32:38.564Z,98347.66
2019-05-02T03:35:52.169Z,98349.48
2019-05-02T03:39:13.492Z,98344.73
2019-05-02T03:42:22.188Z,98349.48
2019-05-02T03:45:40.071Z,98349.75
2019-05-02T03:48:52.049Z,98353.05
2019-05-02T03:52:06.208Z,98352.95
2019-05-02T03:55:23.742Z,98356.90
2019-05-02T03:58:35.731Z,98357.92
2019-05-02T04:01:49.666Z,98350.52
2019-05-02T04:05:03.890Z,98353.06
2019-05-02T04:08:20.778Z,98352.71
2019-05-02T04:11:38.976Z,98349.91
2019-05-02T04:14:55.303Z,98354.36
2019-05-02T04:18:08.367Z,98356.41
2019-05-02T04:21:24.520Z,98348.98
2019-05-02T04:24:36.602Z,98349.87
2019-05-02T04:27:50.196Z,98356.64
2019-05-02T04:31:03.796Z,98351.14
2019-05-02T04:34:17.905Z,98347.95
2019-05-02T04:37:34.384Z,98345.91
2019-05-02T04:40:49.581Z,98351.50
2019-05-02T04:44:02.998Z,98346.39
2019-05-02T04:47:20.876Z,98345.88
2019-05-02T04:50:32.597Z,98343.81
2019-05-02T04:53:49.558Z,98342.13
2019-05-02T04:57:02.710Z,98339.94
2019-05-02T05:00:21.061Z,98336.60
2019-05-02T05:03:34.822Z,98338.73
2019-05-02T05:06:56.210Z,98336.91
2019-05-02T05:10:04.246Z,98340.84
2019-05-02T05:16:34.393Z,98348.18
2019-05-02T05:19:48.742Z,98354.94
2019-05-02T05:23:02.464Z,98359.42
2019-05-02T05:26:17.520Z,98358.34
2019-05-02T05:29:31.331Z,98355.25
2019-05-02T05:32:45.123Z,98355.97
2019-05-02T05:35:58.630Z,98362.19
2019-05-02T05:39:12.138Z,98361.35
2019-05-02T05:42:30.109Z,98361.34
2019-05-02T05:45:53.486Z,98368.88
2019-05-02T05:49:18.404Z,98370.66
2019-05-02T05:52:28.450Z,98366.98
2019-05-02T05:55:41.974Z,98367.31
2019-05-02T05:58:58.967Z,98372.92
2019-05-02T06:02:14.574Z,98369.56
2019-05-02T06:05:27.647Z,98368.22
2019-05-02T06:08:41.693Z,98367.62
2019-05-02T06:11:55.635Z,98366.06
2019-05-02T06:15:10.728Z,98367.52
2019-05-02T06:18:24.319Z,98365.67
2019-05-02T06:21:40.071Z,98362.72
2019-05-02T06:24:53.300Z,98365.00
2019-05-02T06:28:07.024Z,98364.13
2019-05-02T06:31:20.480Z,98364.19
2019-05-02T06:34:38.747Z,98364.45
2019-05-02T06:37:50.335Z,98364.48
2019-05-02T06:41:05.137Z,98362.11
2019-05-02T06:44:23.717Z,98365.13
2019-05-02T06:47:35.934Z,98359.05
2019-05-02T06:50:50.024Z,98356.08
2019-05-02T06:54:04.056Z,98352.84
2019-05-02T06:57:19.098Z,98354.44
2019-05-02T07:00:38.439Z,98349.63
2019-05-02T07:03:48.779Z,98349.13
2019-05-02T07:07:02.857Z,98346.87
2019-05-02T07:10:20.140Z,98336.55
2019-05-02T07:13:36.190Z,98338.53
2019-05-02T07:17:05.674Z,98336.38
2019-05-02T07:20:19.288Z,98337.66
2019-05-02T07:23:32.806Z,98336.40
2019-05-02T07:26:47.005Z,98333.02
2019-05-02T07:30:00.954Z,98330.58
2019-05-02T07:33:14.449Z,98331.55
2019-05-02T07:36:31.188Z,98326.10
2019-05-02T07:39:43.954Z,98323.12
2019-05-02T07:42:57.538Z,98322.88
2019-05-02T07:46:11.237Z,98314.63
2019-05-02T07:49:26.538Z,98317.45
2019-05-02T07:52:41.228Z,98315.39
2019-05-02T07:55:54.937Z,98324.02
2019-05-02T07:59:09.295Z,98321.62
2019-05-02T08:02:25.035Z,98322.50
2019-05-02T08:05:38.189Z,98317.47
2019-05-02T08:08:51.769Z,98316.36
2019-05-02T08:12:05.461Z,98305.22
2019-05-02T08:15:19.149Z,98314.02
2019-05-02T08:18:32.733Z,98322.64
2019-05-02T08:21:46.230Z,98318.88
2019-05-02T08:25:00.041Z,98313.52
2019-05-02T08:28:21.626Z,98315.84
2019-05-02T08:31:35.118Z,98317.86
2019-05-02T08:34:51.653Z,98311.14
2019-05-02T08:38:04.582Z,98316.39
2019-05-02T08:41:19.924Z,98301.66
2019-05-02T08:44:34.076Z,98304.54
2019-05-02T08:47:47.586Z,98305.42
2019-05-02T08:51:01.194Z,98296.94
2019-05-02T08:54:15.052Z,98295.05
2019-05-02T08:57:30.080Z,98287.55
2019-05-02T09:00:47.002Z,98285.20
2019-05-02T09:03:59.899Z,98283.16
2019-05-02T09:07:13.452Z,98284.41
2019-05-02T09:10:27.148Z,98277.27
2019-05-02T09:13:42.166Z,98265.84
2019-05-02T09:17:00.296Z,98272.91
2019-05-02T09:20:18.744Z,98263.03
2019-05-02T09:23:27.665Z,98258.31
2019-05-02T09:26:43.717Z,98254.98
2019-05-02T09:29:57.245Z,98247.71
2019-05-02T09:33:11.755Z,98246.75
2019-05-02T09:36:25.405Z,98242.09
2019-05-02T09:39:38.999Z,98239.94
2019-05-02T09:42:57.479Z,98242.22
2019-05-02T09:46:12.798Z,98241.48
2019-05-02T09:49:23.850Z,98244.34
2019-05-02T09:52:39.542Z,98235.56
2019-05-02T09:55:57.307Z,98228.47
2019-05-02T09:59:24.308Z,98237.28
2019-05-02T10:02:25.313Z,98225.91
2019-05-02T10:05:39.031Z,98222.63
2019-05-02T10:08:53.067Z,98206.48
2019-05-02T10:12:07.094Z,98205.23
2019-05-02T10:15:22.211Z,98197.64
2019-05-02T10:18:35.883Z,98199.30
2019-05-02T10:21:52.458Z,98196.47
2019-05-02T10:25:06.133Z,98194.27
2019-05-02T10:28:19.892Z,98191.12
2019-05-02T10:31:37.669Z,98188.41
2019-05-02T10:34:53.133Z,98184.63
2019-05-02T10:38:04.373Z,98187.91
2019-05-02T10:41:17.979Z,98170.63
2019-05-02T10:44:32.703Z,98165.75
2019-05-02T10:47:46.894Z,98159.98
2019-05-02T10:51:18.718Z,98161.61
2019-05-02T10:54:33.711Z,98158.23
2019-05-02T10:57:48.884Z,98148.01
2019-05-02T11:01:03.847Z,98146.52
2019-05-02T11:04:17.532Z,98135.70
2019-05-02T11:07:32.649Z,98137.72
2019-05-02T11:10:46.822Z,98132.47
2019-05-02T11:14:13.633Z,98135.01
2019-05-02T11:17:32.445Z,98132.22
2019-05-02T11:20:46.138Z,98130.28
2019-05-02T11:24:02.185Z,98122.48
2019-05-02T11:27:15.293Z,98117.87
2019-05-02T11:30:29.031Z,98105.28
2019-05-02T11:33:42.680Z,98110.28
2019-05-02T11:36:56.494Z,98102.64
2019-05-02T11:40:12.581Z,98108.13
2019-05-02T11:43:26.046Z,98103.19
2019-05-02T11:46:42.906Z,98102.29
2019-05-02T11:49:56.002Z,98098.44
2019-05-02T11:53:23.293Z,98098.47
2019-05-02T11:56:25.250Z,98093.02
2019-05-02T11:59:38.776Z,98090.18
2019-05-02T12:03:14.776Z,98085.83
2019-05-02T12:06:29.239Z,98081.79
2019-05-02T12:09:44.328Z,98082.77
2019-05-02T12:16:34.645Z,98078.72
2019-05-02T12:19:48.386Z,98084.84
2019-05-02T12:23:02.188Z,98086.03
2019-05-02T12:26:15.778Z,98088.64
2019-05-02T12:29:29.567Z,98085.24
2019-05-02T12:32:43.383Z,98088.30
2019-05-02T12:35:57.670Z,98087.97
2019-05-02T12:39:12.645Z,98078.55
2019-05-02T12:42:27.025Z,98079.17
2019-05-02T12:45:42.119Z,98081.37
2019-05-02T12:48:56.060Z,98082.23
2019-05-02T12:52:09.604Z,98076.28
2019-05-02T12:55:23.253Z,98060.95
2019-05-02T12:58:37.047Z,98051.06
2019-05-02T13:01:51.806Z,98058.73
2019-05-02T13:05:05.748Z,98047.73
2019-05-02T13:08:19.312Z,98059.53
2019-05-02T13:11:42.152Z,98050.63
2019-05-02T13:14:54.047Z,98058.18
2019-05-02T13:18:07.784Z,98043.09
2019-05-02T13:21:38.704Z,98036.88
2019-05-02T13:24:54.140Z,98036.23
2019-05-02T13:28:03.643Z,98031.38
2019-05-02T13:31:42.811Z,98035.53
2019-05-02T13:35:03.195Z,98028.67
2019-05-02T13:38:19.581Z,98031.78
2019-05-02T13:41:33.118Z,98027.47
2019-05-02T13:44:54.073Z,98021.70
2019-05-02T13:48:07.782Z,98017.09
2019-05-02T13:51:22.279Z,98014.67
2019-05-02T13:54:36.812Z,97998.48
2019-05-02T13:57:50.425Z,98009.50
2019-05-02T14:01:04.404Z,98008.92
2019-05-02T14:04:18.130Z,98007.90
2019-05-02T14:07:32.665Z,98005.36
2019-05-02T14:10:47.903Z,98004.37
2019-05-02T14:14:01.948Z,97994.38
2019-05-02T14:17:15.857Z,97995.56
2019-05-02T14:20:29.602Z,97989.83
2019-05-02T14:23:43.337Z,97985.62
2019-05-02T14:26:56.983Z,97986.50
2019-05-02T14:30:12.206Z,97979.16
2019-05-02T14:33:27.717Z,97978.94
2019-05-02T14:36:42.347Z,97975.42
2019-05-02T14:40:04.243Z,97969.65
2019-05-02T14:43:43.006Z,97967.34
2019-05-02T14:46:52.363Z,97965.73
2019-05-02T14:50:06.407Z,97958.73
2019-05-02T14:53:22.152Z,97964.05
2019-05-02T14:56:55.515Z,97955.09
2019-05-02T15:00:09.557Z,97957.20
2019-05-02T15:03:24.575Z,97961.65
2019-05-02T15:06:45.469Z,97948.19
2019-05-02T15:09:57.134Z,97938.35
2019-05-02T15:13:09.933Z,97940.97
2019-05-02T15:16:33.392Z,97941.84
2019-05-02T15:19:39.360Z,97940.30
2019-05-02T15:22:52.873Z,97942.97
2019-05-02T15:26:06.613Z,97941.06
2019-05-02T15:29:25.088Z,97948.42
2019-05-02T15:33:02.948Z,97945.14
2019-05-02T15:36:17.057Z,97942.78
2019-05-02T15:42:47.086Z,97942.48
2019-05-02T15:46:02.011Z,97939.88
2019-05-02T15:49:15.637Z,97939.77
2019-05-02T15:52:32.621Z,97939.09
2019-05-02T15:55:46.336Z,97929.63
2019-05-02T15:59:03.417Z,97928.29
2019-05-02T16:02:22.823Z,97928.65
2019-05-02T16:05:36.553Z,97920.17
2019-05-02T16:08:49.359Z,97911.79
2019-05-02T16:12:03.546Z,97911.95
2019-05-02T16:15:21.467Z,97911.98
2019-05-02T16:18:36.019Z,97903.33
2019-05-02T16:22:06.268Z,97903.86
2019-05-02T16:25:20.036Z,97910.28
2019-05-02T16:28:36.950Z,97905.22
2019-05-02T16:32:09.924Z,97910.73
2019-05-02T16:35:24.568Z,97905.23
2019-05-02T16:38:38.062Z,97911.05
2019-05-02T16:41:52.958Z,97906.02
2019-05-02T16:45:08.198Z,97911.41
2019-05-02T16:48:22.209Z,97907.89
2019-05-02T16:51:37.631Z,97908.23
2019-05-02T16:54:52.647Z,97906.24
2019-05-02T16:58:07.373Z,97912.27
2019-05-02T17:01:27.189Z,97910.68
2019-05-02T17:04:36.899Z,97914.09
2019-05-02T17:08:10.778Z,97917.05
2019-05-02T17:11:33.648Z,97923.22
2019-05-02T17:15:03.611Z,97935.56
2019-05-02T17:18:18.242Z,97930.00
2019-05-02T17:21:52.447Z,97935.75
2019-05-02T17:24:48.220Z,97940.70
2019-05-02T17:28:08.278Z,97946.34
2019-05-02T17:31:20.424Z,97939.98
2019-05-02T17:34:34.995Z,97943.06
2019-05-02T17:37:49.104Z,97949.67
2019-05-02T17:41:07.703Z,97949.95
2019-05-02T17:44:22.109Z,97942.90
2019-05-02T17:47:36.208Z,97958.75
2019-05-02T17:51:09.371Z,97959.34
2019-05-02T17:54:26.256Z,97953.38
2019-05-02T17:57:38.506Z,97951.88
2019-05-02T18:00:56.916Z,97952.14
2019-05-02T18:04:12.660Z,97955.23
2019-05-02T18:07:31.897Z,97968.30
2019-05-02T18:10:41.886Z,97973.63
2019-05-02T18:13:55.546Z,97974.16
2019-05-02T18:17:09.246Z,97980.19
2019-05-02T18:20:25.281Z,97974.88
2019-05-02T18:23:38.464Z,97975.22
2019-05-02T18:26:52.063Z,97984.84
2019-05-02T18:30:06.791Z,97985.70
2019-05-02T18:33:22.541Z,97989.34
2019-05-02T18:36:36.336Z,97993.81
2019-05-02T18:39:55.261Z,97997.66
2019-05-02T18:43:05.836Z,98001.11
2019-05-02T18:46:20.014Z,97998.25
2019-05-02T18:49:33.834Z,98004.86
2019-05-02T18:52:48.098Z,98012.82
2019-05-02T18:56:03.641Z,98003.66
2019-05-02T18:59:19.746Z,98009.31
2019-05-02T19:02:35.683Z,98018.20
2019-05-02T19:05:51.509Z,98025.42
2019-05-02T19:09:09.058Z,98027.05
2019-05-02T19:12:25.996Z,98033.31
2019-05-02T19:15:39.516Z,98039.36
2019-05-02T19:18:57.278Z,98043.77
2019-05-02T19:22:13.361Z,98044.92
2019-05-02T19:25:25.095Z,98048.13
2019-05-02T19:29:02.502Z,98048.13
2019-05-02T19:32:17.057Z,98049.89
2019-05-02T19:35:32.794Z,98059.56
2019-05-02T19:38:46.994Z,98066.41
2019-05-02T19:42:01.787Z,98065.94
2019-05-02T19:45:16.896Z,98070.52
2019-05-02T19:48:33.025Z,98078.76
2019-05-02T19:51:50.552Z,98081.08
2019-05-02T19:55:01.951Z,98084.38
2019-05-02T19:58:15.642Z,98084.16
2019-05-02T20:01:29.660Z,98090.51
2019-05-02T20:04:44.330Z,98089.06
2019-05-02T20:07:58.047Z,98085.28
2019-05-02T20:11:12.615Z,98091.59
2019-05-02T20:14:26.278Z,98092.72
2019-05-02T20:17:41.665Z,98083.88
2019-05-02T20:21:23.492Z,98085.55
2019-05-02T20:24:55.265Z,98091.05
2019-05-02T20:28:06.944Z,98096.44
2019-05-02T20:31:21.696Z,98095.32
2019-05-02T20:34:35.667Z,98098.84
2019-05-02T20:37:49.161Z,98096.08
2019-05-02T20:41:03.094Z,98096.08
2019-05-02T20:44:16.774Z,98100.55
2019-05-02T20:47:30.457Z,98107.16
2019-05-02T20:50:44.051Z,98110.50
2019-05-02T20:53:57.641Z,98108.01
2019-05-02T20:57:12.020Z,98110.89
2019-05-02T21:00:27.849Z,98112.48
2019-05-02T21:03:42.714Z,98110.36
2019-05-02T21:07:10.602Z,98107.06
2019-05-02T21:10:27.830Z,98109.77
2019-05-02T21:16:34.044Z,98107.47
2019-05-02T21:19:47.566Z,98108.83
2019-05-02T21:23:01.990Z,98128.32
2019-05-02T21:26:15.650Z,98128.99
2019-05-02T21:29:29.271Z,98128.80
2019-05-02T21:32:42.953Z,98129.58
2019-05-02T21:35:56.530Z,98139.87
2019-05-02T21:39:11.878Z,98133.94
2019-05-02T21:42:25.713Z,98145.41
2019-05-02T21:45:39.450Z,98146.63
2019-05-02T21:48:52.925Z,98147.41
2019-05-02T21:52:29.188Z,98157.19
2019-05-02T21:55:52.071Z,98154.98
2019-05-02T21:59:12.232Z,98159.19
2019-05-02T22:02:26.336Z,98163.92
2019-05-02T22:05:42.279Z,98158.67
2019-05-02T22:08:55.832Z,98160.84
2019-05-02T22:12:09.544Z,98167.41
2019-05-02T22:15:23.051Z,98166.92
2019-05-02T22:18:36.546Z,98166.07
2019-05-02T22:21:52.265Z,98169.88
2019-05-02T22:25:05.958Z,98164.78
2019-05-02T22:28:19.556Z,98169.52
2019-05-02T22:31:33.278Z,98174.44
2019-05-02T22:34:46.757Z,98176.41
2019-05-02T22:38:07.814Z,98172.97
2019-05-02T22:41:22.138Z,98172.37
2019-05-02T22:44:35.792Z,98169.80
2019-05-02T22:47:49.274Z,98172.11
2019-05-02T22:51:03.214Z,98173.52
2019-05-02T22:54:26.675Z,98175.80
2019-05-02T22:57:32.586Z,98177.73
2019-05-02T23:00:46.276Z,98177.83
2019-05-02T23:04:01.950Z,98182.40
2019-05-02T23:07:15.780Z,98184.70
2019-05-02T23:10:29.463Z,98182.23
2019-05-02T23:13:43.049Z,98185.86
2019-05-02T23:16:56.746Z,98186.15
2019-05-02T23:20:12.674Z,98184.16
2019-05-02T23:23:26.142Z,98183.28
2019-05-02T23:27:05.380Z,98183.86
2019-05-02T23:30:22.561Z,98179.22
2019-05-02T23:33:54.512Z,98186.94
2019-05-02T23:37:08.204Z,98182.09
2019-05-02T23:40:22.166Z,98177.73
2019-05-02T23:43:35.985Z,98179.42
2019-05-02T23:46:51.505Z,98175.45
2019-05-02T23:50:05.366Z,98175.97
2019-05-02T23:53:19.192Z,98170.44
2019-05-02T23:56:32.689Z,98169.84
2019-05-02T23:59:46.152Z,98167.27
